English version
lugares datos climáticos artículos

datos de Mairena del Aljarafe, Sevilla, España
Año Mes Dia Mostrar

  Fecha       hora        Temp.ext.    Hum.ext.  Dir.Viento   Vel.Viento  Presion al NM   T.int. Prec.hoy 

   21-08-2018    13:25      33.0º(+0.6)     29%      112 (E)     16.1 km/h    1013.5 hpa     31.1º    0.0 mm
   21-08-2018    13:20      32.7º(+0.3)     30%      090 (E)      8.0 km/h    1013.5 hpa     31.1º    0.0 mm
   21-08-2018    13:15      32.4º(+0.2)     30%      112 (E)     14.5 km/h    1013.7 hpa     31.1º    0.0 mm
   21-08-2018    13:10      32.4º(+0.7)     30%      090 (E)     12.9 km/h    1013.6 hpa     31.1º    0.0 mm
   21-08-2018    13:05      32.6º(+1.3)     30%      090 (E)     16.1 km/h    1013.7 hpa     31.1º    0.0 mm
   21-08-2018    13:00      32.7º(+1.5)     31%      090 (E)     11.3 km/h    1013.7 hpa     31.1º    0.0 mm
   21-08-2018    12:55      32.6º(+1.3)     32%      090 (E)     14.5 km/h    1013.7 hpa     30.9º    0.0 mm
   21-08-2018    12:50      32.4º(+1.0)     32%      090 (E)      8.0 km/h    1013.9 hpa     30.9º    0.0 mm
   21-08-2018    12:45      32.2º(+0.9)     33%      090 (E)     11.3 km/h    1013.8 hpa     30.9º    0.0 mm
   21-08-2018    12:40      31.8º(+0.2)     35%      112 (E)     11.3 km/h    1014.0 hpa     30.9º    0.0 mm
   21-08-2018    12:35      31.6º(+0.0)     35%      090 (E)      9.7 km/h    1014.1 hpa     30.9º    0.0 mm
   21-08-2018    12:30      31.4º(+0.0)     36%      112 (E)     12.9 km/h    1014.0 hpa     30.9º    0.0 mm
   21-08-2018    12:25      31.6º(+0.5)     35%      112 (E)     11.3 km/h    1014.2 hpa     30.9º    0.0 mm
   21-08-2018    12:20      31.4º(+0.7)     37%      090 (E)      6.4 km/h    1014.1 hpa     30.9º    0.0 mm
   21-08-2018    12:15      31.0º(+0.4)     38%      090 (E)      9.7 km/h    1014.2 hpa     30.9º    0.0 mm
   21-08-2018    12:10      30.7º(+0.4)     39%      112 (E)      9.7 km/h    1014.4 hpa     30.9º    0.0 mm
   21-08-2018    12:05      30.4º(+0.4)     40%      090 (E)      9.7 km/h    1014.3 hpa     30.9º    0.0 mm
   21-08-2018    12:00      30.6º(+0.8)     43%      090 (E)      3.2 km/h    1014.5 hpa     30.9º    0.0 mm
   21-08-2018    11:55      30.1º(+0.4)     45%      045(NE)      6.4 km/h    1014.4 hpa     30.9º    0.0 mm
   21-08-2018    11:50      29.8º(+0.4)     46%      067(NE)      4.8 km/h    1014.3 hpa     30.9º    0.0 mm
   21-08-2018    11:45      29.7º(+0.3)     47%      090 (E)      4.8 km/h    1014.4 hpa     30.9º    0.0 mm
   21-08-2018    11:40      29.6º(+0.4)     48%      045(NE)      1.6 km/h    1014.4 hpa     30.9º    0.0 mm
   21-08-2018    11:35      29.1º(-0.0)     50%      022 (N)      3.2 km/h    1014.4 hpa     30.8º    0.0 mm
   21-08-2018    11:30      29.1º(+0.1)     50%      045(NE)      3.2 km/h    1014.6 hpa     30.8º    0.0 mm
   21-08-2018    11:25      28.9º(-0.3)     50%      045(NE)      3.2 km/h    1014.5 hpa     30.8º    0.0 mm
   21-08-2018    11:20      28.7º(-0.6)     51%      067(NE)      1.6 km/h    1014.4 hpa     30.8º    0.0 mm
   21-08-2018    11:15      28.5º(-0.6)     52%      090 (E)      3.2 km/h    1014.5 hpa     30.7º    0.0 mm
   21-08-2018    11:10      28.3º(-0.5)     52%      090 (E)      4.8 km/h    1014.5 hpa     30.7º    0.0 mm
   21-08-2018    11:05      28.1º(-0.6)     52%      022 (N)      3.2 km/h    1014.5 hpa     30.7º    0.0 mm
   21-08-2018    11:00      28.0º(-0.4)     53%      067(NE)      1.6 km/h    1014.6 hpa     30.7º    0.0 mm
   21-08-2018    10:55      27.9º(-0.3)     53%      022 (N)      3.2 km/h    1014.6 hpa     30.7º    0.0 mm
   21-08-2018    10:50      27.8º(-0.1)     53%      045(NE)      1.6 km/h    1014.5 hpa     30.7º    0.0 mm
   21-08-2018    10:45      27.6º(-0.3)     54%      067(NE)      3.2 km/h    1014.5 hpa     30.7º    0.0 mm
   21-08-2018    10:40      27.3º(-0.7)     54%      067(NE)      3.2 km/h    1014.6 hpa     30.7º    0.0 mm
   21-08-2018    10:35      27.1º(-0.7)     55%      067(NE)      3.2 km/h    1014.5 hpa     30.7º    0.0 mm
   21-08-2018    10:30      26.9º(-0.8)     55%      045(NE)      4.8 km/h    1014.6 hpa     30.6º    0.0 mm
   21-08-2018    10:25      26.8º(-0.5)     56%      067(NE)      1.6 km/h    1014.5 hpa     30.6º    0.0 mm
   21-08-2018    10:20      26.6º(-0.6)     56%      067(NE)      3.2 km/h    1014.6 hpa     30.6º    0.0 mm
   21-08-2018    10:15      26.3º(-1.0)     57%      045(NE)      3.2 km/h    1014.6 hpa     30.6º    0.0 mm
   21-08-2018    10:10      26.2º(-0.9)     57%      022 (N)      3.2 km/h    1014.6 hpa     30.6º    0.0 mm
   21-08-2018    10:05      25.9º(-1.0)     57%      045(NE)      3.2 km/h    1014.6 hpa     30.6º    0.0 mm
   21-08-2018    10:00      25.9º(-1.0)     57%      045(NE)      3.2 km/h    1014.6 hpa     30.6º    0.0 mm
   21-08-2018    09:55      25.8º(-0.7)     57%      090 (E)      3.2 km/h    1014.6 hpa     30.6º    0.0 mm
   21-08-2018    09:50      25.7º(-0.4)     57%      022 (N)      3.2 km/h    1014.7 hpa     30.6º    0.0 mm
   21-08-2018    09:45      25.4º(-0.5)     57%      045(NE)      3.2 km/h    1014.7 hpa     30.6º    0.0 mm
   21-08-2018    09:40      25.2º(-0.5)     57%      045(NE)      3.2 km/h    1014.7 hpa     30.6º    0.0 mm
   21-08-2018    09:35      25.1º(-0.5)     57%      045(NE)      4.8 km/h    1014.6 hpa     30.6º    0.0 mm
   21-08-2018    09:30      24.9º(-0.5)     58%      045(NE)      4.8 km/h    1014.7 hpa     30.6º    0.0 mm
   21-08-2018    09:25      24.8º(-0.4)     57%      045(NE)      4.8 km/h    1014.6 hpa     30.6º    0.0 mm
   21-08-2018    09:20      24.7º(-0.3)     58%      045(NE)      4.8 km/h    1014.7 hpa     30.6º    0.0 mm
   21-08-2018    09:15      24.7º(-0.2)     58%      045(NE)      6.4 km/h    1014.7 hpa     30.6º    0.0 mm
   21-08-2018    09:10      24.7º(-0.1)     57%      045(NE)      3.2 km/h    1014.6 hpa     30.6º    0.0 mm
   21-08-2018    09:05      24.4º(-0.3)     58%      045(NE)      3.2 km/h    1014.5 hpa     30.6º    0.0 mm
   21-08-2018    09:00      24.3º(-0.4)     58%      045(NE)      4.8 km/h    1014.4 hpa     30.6º    0.0 mm
   21-08-2018    08:55      24.3º(-0.3)     58%      045(NE)      6.4 km/h    1014.4 hpa     30.6º    0.0 mm
   21-08-2018    08:50      24.3º(-0.1)     57%      045(NE)      4.8 km/h    1014.3 hpa     30.6º    0.0 mm
   21-08-2018    08:45      24.3º(-0.1)     58%      112 (E)      1.6 km/h    1014.3 hpa     30.6º    0.0 mm
   21-08-2018    08:40      24.2º(-0.1)     58%      000 (N)      3.2 km/h    1014.3 hpa     30.6º    0.0 mm
   21-08-2018    08:35      24.1º(-0.2)     58%      000 (N)      3.2 km/h    1014.3 hpa     30.6º    0.0 mm
   21-08-2018    08:30      24.1º(-0.2)     58%      022 (N)      3.2 km/h    1014.2 hpa     30.6º    0.0 mm
   21-08-2018    08:25      24.0º(-0.3)     58%      000 (N)      3.2 km/h    1014.2 hpa     30.6º    0.0 mm
   21-08-2018    08:20      24.0º(-0.3)     58%      000 (N)      3.2 km/h    1014.2 hpa     30.6º    0.0 mm
   21-08-2018    08:15      24.0º(-0.3)     59%      045(NE)      1.6 km/h    1014.3 hpa     30.6º    0.0 mm
   21-08-2018    08:10      23.9º(-0.4)     59%         -         0.0 km/h    1014.3 hpa     30.6º    0.0 mm
   21-08-2018    08:05      23.9º(-0.4)     59%      045(NE)      3.2 km/h    1014.2 hpa     30.6º    0.0 mm
   21-08-2018    08:00      23.9º(-0.4)     59%      022 (N)      3.2 km/h    1014.2 hpa     30.6º    0.0 mm
   21-08-2018    07:55      24.0º(-0.3)     59%      045(NE)      3.2 km/h    1014.2 hpa     30.6º    0.0 mm
   21-08-2018    07:50      24.0º(-0.4)     58%      045(NE)      4.8 km/h    1014.2 hpa     30.6º    0.0 mm
   21-08-2018    07:45      24.1º(-0.5)     58%      067(NE)      1.6 km/h    1014.2 hpa     30.6º    0.0 mm
   21-08-2018    07:40      24.1º(-0.6)     58%      090 (E)      3.2 km/h    1014.2 hpa     30.6º    0.0 mm
   21-08-2018    07:35      24.1º(-0.7)     58%      045(NE)      3.2 km/h    1014.2 hpa     30.6º    0.0 mm
   21-08-2018    07:30      24.1º(-0.7)     57%      067(NE)      3.2 km/h    1014.1 hpa     30.6º    0.0 mm
   21-08-2018    07:25      24.2º(-0.6)     57%      045(NE)      4.8 km/h    1014.0 hpa     30.7º    0.0 mm
   21-08-2018    07:20      24.2º(-0.7)     57%      022 (N)      3.2 km/h    1014.0 hpa     30.7º    0.0 mm
   21-08-2018    07:15      24.2º(-0.7)     57%      045(NE)      4.8 km/h    1014.0 hpa     30.7º    0.0 mm
   21-08-2018    07:10      24.2º(-0.7)     57%      045(NE)      4.8 km/h    1013.9 hpa     30.7º    0.0 mm
   21-08-2018    07:05      24.2º(-0.6)     57%      045(NE)      3.2 km/h    1014.0 hpa     30.8º    0.0 mm
   21-08-2018    07:00      24.3º(-0.5)     58%      045(NE)      3.2 km/h    1013.9 hpa     30.8º    0.0 mm
   21-08-2018    06:55      24.4º(-0.4)     59%      022 (N)      4.8 km/h    1013.8 hpa     30.8º    0.0 mm
   21-08-2018    06:50      24.5º(-0.3)     61%      022 (N)      3.2 km/h    1013.9 hpa     30.8º    0.0 mm
   21-08-2018    06:45      24.6º(-0.3)     62%      000 (N)      3.2 km/h    1013.9 hpa     30.8º    0.0 mm
   21-08-2018    06:40      24.7º(-0.2)     62%      337(NW)      4.8 km/h    1013.9 hpa     30.8º    0.0 mm
   21-08-2018    06:35      24.8º(-0.1)     62%      000 (N)      4.8 km/h    1013.9 hpa     30.8º    0.0 mm
   21-08-2018    06:30      24.8º(-0.3)     62%      000 (N)      4.8 km/h    1014.0 hpa     30.8º    0.0 mm
   21-08-2018    06:25      24.8º(-0.4)     62%      000 (N)      6.4 km/h    1014.0 hpa     30.8º    0.0 mm
   21-08-2018    06:20      24.9º(-0.5)     62%      000 (N)      8.0 km/h    1013.9 hpa     30.8º    0.0 mm
   21-08-2018    06:15      25.1º(-0.3)     61%      000 (N)      6.4 km/h    1013.9 hpa     30.8º    0.0 mm
   21-08-2018    06:10      25.2º(-0.3)     60%      000 (N)      8.0 km/h    1013.9 hpa     30.8º    0.0 mm
   21-08-2018    06:05      25.3º(-0.3)     59%      000 (N)      9.7 km/h    1013.9 hpa     30.8º    0.0 mm
   21-08-2018    06:00      25.4º(-0.2)     58%      000 (N)      8.0 km/h    1013.9 hpa     30.8º    0.0 mm
   21-08-2018    05:55      25.4º(-0.2)     58%      000 (N)      6.4 km/h    1013.9 hpa     30.8º    0.0 mm
   21-08-2018    05:50      25.5º(-0.1)     58%      000 (N)      6.4 km/h    1014.0 hpa     30.8º    0.0 mm
   21-08-2018    05:45      25.5º(-0.1)     58%      000 (N)      6.4 km/h    1014.1 hpa     30.8º    0.0 mm
   21-08-2018    05:40      25.6º(-0.1)     58%      022 (N)      6.4 km/h    1014.1 hpa     30.8º    0.0 mm
   21-08-2018    05:35      25.6º(-0.1)     58%      000 (N)      6.4 km/h    1014.1 hpa     30.8º    0.0 mm
   21-08-2018    05:30      25.6º(-0.1)     58%      000 (N)      3.2 km/h    1014.1 hpa     30.8º    0.0 mm
   21-08-2018    05:25      25.6º(-0.2)     58%         -         0.0 km/h    1014.1 hpa     30.8º    0.0 mm
   21-08-2018    05:20      25.6º(-0.2)     58%      000 (N)      4.8 km/h    1014.1 hpa     30.8º    0.0 mm
   21-08-2018    05:15      25.6º(-0.2)     58%      000 (N)      3.2 km/h    1014.2 hpa     30.8º    0.0 mm
   21-08-2018    05:10      25.6º(-0.3)     58%      337(NW)      3.2 km/h    1014.2 hpa     30.8º    0.0 mm
   21-08-2018    05:05      25.6º(-0.3)     58%      337(NW)      3.2 km/h    1014.2 hpa     30.8º    0.0 mm
   21-08-2018    05:00      25.6º(-0.2)     58%      337(NW)      3.2 km/h    1014.3 hpa     30.8º    0.0 mm
   21-08-2018    04:55      25.6º(-0.2)     58%      337(NW)      4.8 km/h    1014.3 hpa     30.8º    0.0 mm
   21-08-2018    04:50      25.5º(-0.3)     59%      337(NW)      6.4 km/h    1014.3 hpa     30.8º    0.0 mm
   21-08-2018    04:45      25.6º(-0.2)     59%      337(NW)      6.4 km/h    1014.3 hpa     30.8º    0.0 mm
   21-08-2018    04:40      25.6º(-0.2)     59%      337(NW)      6.4 km/h    1014.4 hpa     30.8º    0.0 mm
   21-08-2018    04:35      25.6º(-0.2)     59%      337(NW)      6.4 km/h    1014.3 hpa     30.8º    0.0 mm
   21-08-2018    04:30      25.5º(-0.3)     59%      337(NW)      8.0 km/h    1014.4 hpa     30.8º    0.0 mm
   21-08-2018    04:25      25.5º(-0.3)     59%      337(NW)      6.4 km/h    1014.3 hpa     30.8º    0.0 mm
   21-08-2018    04:20      25.5º(-0.3)     59%      337(NW)      8.0 km/h    1014.3 hpa     30.8º    0.0 mm
   21-08-2018    04:15      25.5º(-0.3)     59%      337(NW)      8.0 km/h    1014.3 hpa     30.8º    0.0 mm
   21-08-2018    04:10      25.5º(-0.3)     59%      337(NW)      8.0 km/h    1014.4 hpa     30.8º    0.0 mm
   21-08-2018    04:05      25.6º(-0.2)     59%      337(NW)      8.0 km/h    1014.4 hpa     30.8º    0.0 mm
   21-08-2018    04:00      25.6º(-0.2)     59%      337(NW)      8.0 km/h    1014.3 hpa     30.9º    0.0 mm
   21-08-2018    03:55      25.6º(-0.2)     59%      337(NW)      8.0 km/h    1014.3 hpa     30.9º    0.0 mm
   21-08-2018    03:50      25.5º(-0.3)     59%      337(NW)      8.0 km/h    1014.3 hpa     30.9º    0.0 mm
   21-08-2018    03:45      25.5º(-0.3)     59%      337(NW)      8.0 km/h    1014.4 hpa     30.9º    0.0 mm
   21-08-2018    03:40      25.5º(-0.3)     59%      337(NW)      8.0 km/h    1014.3 hpa     30.9º    0.0 mm
   21-08-2018    03:35      25.6º(-0.2)     59%      337(NW)      6.4 km/h    1014.4 hpa     30.9º    0.0 mm
   21-08-2018    03:30      25.6º(-0.2)     59%      315(NW)      6.4 km/h    1014.5 hpa     30.9º    0.0 mm
   21-08-2018    03:25      25.6º(-0.2)     59%      315(NW)      4.8 km/h    1014.5 hpa     30.9º    0.0 mm
   21-08-2018    03:20      25.6º(-0.1)     59%      315(NW)      4.8 km/h    1014.5 hpa     30.9º    0.0 mm
   21-08-2018    03:15      25.7º(-0.0)     59%      315(NW)      3.2 km/h    1014.5 hpa     30.9º    0.0 mm
   21-08-2018    03:10      25.6º(-0.1)     59%      292 (W)      4.8 km/h    1014.5 hpa     30.9º    0.0 mm
   21-08-2018    03:05      25.6º(-0.2)     59%      315(NW)      4.8 km/h    1014.5 hpa     30.9º    0.0 mm
   21-08-2018    03:00      25.6º(-0.2)     59%      315(NW)      6.4 km/h    1014.5 hpa     30.9º    0.0 mm
   21-08-2018    02:55      25.7º(-0.1)     59%      315(NW)      4.8 km/h    1014.6 hpa     30.9º    0.0 mm
   21-08-2018    02:50      25.7º(-0.1)     59%      315(NW)      4.8 km/h    1014.5 hpa     30.9º    0.0 mm
   21-08-2018    02:45      25.7º(-0.2)     59%      315(NW)      4.8 km/h    1014.6 hpa     30.9º    0.0 mm
   21-08-2018    02:40      25.7º(-0.2)     59%      292 (W)      3.2 km/h    1014.7 hpa     30.9º    0.0 mm
   21-08-2018    02:35      25.7º(-0.2)     59%      292 (W)      1.6 km/h    1014.6 hpa     30.9º    0.0 mm
   21-08-2018    02:30      25.8º(-0.1)     59%      292 (W)      3.2 km/h    1014.6 hpa     30.9º    0.0 mm
   21-08-2018    02:25      25.8º(-0.3)     59%         -         0.0 km/h    1014.6 hpa     30.9º    0.0 mm
   21-08-2018    02:20      25.8º(-0.3)     59%      270 (W)      3.2 km/h    1014.7 hpa     30.9º    0.0 mm
   21-08-2018    02:15      25.8º(-0.4)     59%      270 (W)      3.2 km/h    1014.7 hpa     30.9º    0.0 mm
   21-08-2018    02:10      25.9º(-0.4)     59%      270 (W)      1.6 km/h    1014.7 hpa     30.9º    0.0 mm
   21-08-2018    02:05      25.9º(-0.4)     58%      270 (W)      3.2 km/h    1014.6 hpa     30.9º    0.0 mm
   21-08-2018    02:00      26.1º(-0.3)     58%      292 (W)      3.2 km/h    1014.6 hpa     30.9º    0.0 mm
   21-08-2018    01:55      26.1º(----)     58%      270 (W)      3.2 km/h    1014.6 hpa     30.9º    0.0 mm
   21-08-2018    01:50      26.2º(----)     57%      270 (W)      4.8 km/h    1014.5 hpa     30.9º    0.0 mm
   21-08-2018    01:45      26.2º(----)     57%      270 (W)      4.8 km/h    1014.6 hpa     30.9º    0.0 mm
   21-08-2018    01:40      26.3º(----)     56%      270 (W)      3.2 km/h    1014.5 hpa     30.9º    0.0 mm
   21-08-2018    01:35      26.2º(----)     56%      270 (W)      6.4 km/h    1014.5 hpa     30.9º    0.0 mm
   21-08-2018    01:30      26.2º(----)     56%      292 (W)      6.4 km/h    1014.4 hpa     30.9º    0.0 mm
   21-08-2018    01:25      26.3º(----)     56%      292 (W)      6.4 km/h    1014.4 hpa     30.9º    0.0 mm
   21-08-2018    01:20      26.3º(----)     55%      270 (W)      6.4 km/h    1014.4 hpa     30.9º    0.0 mm
   21-08-2018    01:15      26.5º(----)     54%      292 (W)      6.4 km/h    1014.3 hpa     30.9º    0.0 mm
   21-08-2018    01:10      26.6º(----)     53%      270 (W)      4.8 km/h    1014.4 hpa     30.9º    0.0 mm
   21-08-2018    01:05      26.6º(----)     52%      270 (W)      3.2 km/h    1014.3 hpa     30.8º    0.0 mm
   21-08-2018    01:00      26.6º(----)     51%      270 (W)      6.4 km/h    1014.2 hpa     30.8º    0.0 mm
   21-08-2018    00:55      26.6º(----)     50%      270 (W)      4.8 km/h    1014.2 hpa     30.8º    0.0 mm
   21-08-2018    00:50      26.7º(----)     50%      270 (W)      6.4 km/h    1014.1 hpa     30.8º    0.0 mm
   21-08-2018    00:45      26.8º(----)     49%      270 (W)      6.4 km/h    1014.1 hpa     30.8º    0.0 mm
   21-08-2018    00:40      26.9º(----)     49%      270 (W)      8.0 km/h    1014.1 hpa     30.8º    0.0 mm
   21-08-2018    00:35      27.0º(----)     49%      270 (W)      6.4 km/h    1014.0 hpa     30.8º    0.0 mm
   21-08-2018    00:30      27.2º(----)     48%      270 (W)      6.4 km/h    1014.0 hpa     30.8º    0.0 mm
   21-08-2018    00:25      27.2º(----)     48%      270 (W)      8.0 km/h    1014.0 hpa     30.8º    0.0 mm
   21-08-2018    00:20      27.3º(----)     49%      270 (W)      6.4 km/h    1014.0 hpa     30.8º    0.0 mm
   21-08-2018    00:15      27.4º(----)     49%      270 (W)      8.0 km/h    1013.9 hpa     30.8º    0.0 mm
   21-08-2018    00:10      27.4º(----)     48%      270 (W)      9.7 km/h    1013.9 hpa     30.8º    0.0 mm
   21-08-2018    00:05      27.6º(----)     49%      270 (W)      8.0 km/h    1013.9 hpa     30.8º    0.0 mm
   21-08-2018    00:00      27.7º(----)     49%      270 (W)      6.4 km/h    1013.9 hpa     30.8º    0.0 mm